sensor_id;sensor_type;location;lat;lon;timestamp;P1;durP1;ratioP1;P2;durP2;ratioP2
76228;SDS011;65021;53.174;18.160;2023-07-16T00:01:18;5.80;;;3.60;;
76228;SDS011;65021;53.174;18.160;2023-07-16T00:03:44;7.00;;;3.50;;
76228;SDS011;65021;53.174;18.160;2023-07-16T00:06:11;8.20;;;3.90;;
76228;SDS011;65021;53.174;18.160;2023-07-16T00:08:37;6.50;;;3.80;;
76228;SDS011;65021;53.174;18.160;2023-07-16T00:11:04;6.50;;;4.20;;
76228;SDS011;65021;53.174;18.160;2023-07-16T00:13:30;6.80;;;4.00;;
76228;SDS011;65021;53.174;18.160;2023-07-16T00:15:57;8.70;;;4.20;;
76228;SDS011;65021;53.174;18.160;2023-07-16T00:18:24;7.00;;;3.90;;
76228;SDS011;65021;53.174;18.160;2023-07-16T00:20:50;6.40;;;3.70;;
76228;SDS011;65021;53.174;18.160;2023-07-16T00:23:16;8.80;;;4.10;;
76228;SDS011;65021;53.174;18.160;2023-07-16T00:25:43;8.80;;;3.80;;
76228;SDS011;65021;53.174;18.160;2023-07-16T00:28:10;6.10;;;3.60;;
76228;SDS011;65021;53.174;18.160;2023-07-16T00:30:38;8.30;;;4.60;;
76228;SDS011;65021;53.174;18.160;2023-07-16T00:33:04;7.70;;;4.30;;
76228;SDS011;65021;53.174;18.160;2023-07-16T00:35:31;7.30;;;4.00;;
76228;SDS011;65021;53.174;18.160;2023-07-16T00:37:57;7.10;;;3.90;;
76228;SDS011;65021;53.174;18.160;2023-07-16T00:40:24;7.20;;;3.50;;
76228;SDS011;65021;53.174;18.160;2023-07-16T00:42:50;5.50;;;3.80;;
76228;SDS011;65021;53.174;18.160;2023-07-16T00:45:17;6.10;;;3.70;;
76228;SDS011;65021;53.174;18.160;2023-07-16T00:47:44;7.80;;;3.60;;
76228;SDS011;65021;53.174;18.160;2023-07-16T00:50:11;6.40;;;3.50;;
76228;SDS011;65021;53.174;18.160;2023-07-16T00:52:38;6.40;;;3.60;;
76228;SDS011;65021;53.174;18.160;2023-07-16T00:55:06;7.00;;;3.90;;
76228;SDS011;65021;53.174;18.160;2023-07-16T00:57:33;8.00;;;3.60;;
76228;SDS011;65021;53.174;18.160;2023-07-16T01:00:00;6.80;;;4.00;;
76228;SDS011;65021;53.174;18.160;2023-07-16T01:02:27;7.20;;;3.50;;
76228;SDS011;65021;53.174;18.160;2023-07-16T01:04:54;5.30;;;3.50;;
76228;SDS011;65021;53.174;18.160;2023-07-16T01:07:20;6.30;;;3.60;;
76228;SDS011;65021;53.174;18.160;2023-07-16T01:09:51;8.90;;;3.90;;
76228;SDS011;65021;53.174;18.160;2023-07-16T01:12:21;6.60;;;4.20;;
76228;SDS011;65021;53.174;18.160;2023-07-16T01:14:49;9.30;;;4.00;;
76228;SDS011;65021;53.174;18.160;2023-07-16T01:17:18;9.40;;;4.60;;
76228;SDS011;65021;53.174;18.160;2023-07-16T01:19:44;7.10;;;3.90;;
76228;SDS011;65021;53.174;18.160;2023-07-16T01:25:01;8.00;;;3.90;;
76228;SDS011;65021;53.174;18.160;2023-07-16T01:30:40;8.90;;;3.90;;
76228;SDS011;65021;53.174;18.160;2023-07-16T01:33:10;9.20;;;4.50;;
76228;SDS011;65021;53.174;18.160;2023-07-16T01:35:39;6.90;;;4.40;;
76228;SDS011;65021;53.174;18.160;2023-07-16T01:38:08;8.50;;;4.30;;
76228;SDS011;65021;53.174;18.160;2023-07-16T01:40:36;9.10;;;4.50;;
76228;SDS011;65021;53.174;18.160;2023-07-16T01:43:02;7.90;;;4.30;;
76228;SDS011;65021;53.174;18.160;2023-07-16T01:45:29;7.40;;;4.50;;
76228;SDS011;65021;53.174;18.160;2023-07-16T01:50:56;8.30;;;4.60;;
76228;SDS011;65021;53.174;18.160;2023-07-16T01:53:22;9.20;;;4.50;;
76228;SDS011;65021;53.174;18.160;2023-07-16T01:55:49;8.00;;;4.30;;
76228;SDS011;65021;53.174;18.160;2023-07-16T01:58:16;6.50;;;4.60;;
76228;SDS011;65021;53.174;18.160;2023-07-16T02:00:42;7.20;;;4.30;;
76228;SDS011;65021;53.174;18.160;2023-07-16T02:03:09;7.10;;;4.10;;
76228;SDS011;65021;53.174;18.160;2023-07-16T02:05:35;9.80;;;4.60;;
76228;SDS011;65021;53.174;18.160;2023-07-16T02:08:02;9.70;;;4.50;;
76228;SDS011;65021;53.174;18.160;2023-07-16T02:10:29;6.80;;;4.30;;
76228;SDS011;65021;53.174;18.160;2023-07-16T02:12:55;8.30;;;4.20;;
76228;SDS011;65021;53.174;18.160;2023-07-16T02:15:22;7.90;;;4.40;;
76228;SDS011;65021;53.174;18.160;2023-07-16T02:17:48;7.00;;;4.20;;
76228;SDS011;65021;53.174;18.160;2023-07-16T02:20:15;8.70;;;4.90;;
76228;SDS011;65021;53.174;18.160;2023-07-16T02:22:41;8.90;;;4.80;;
76228;SDS011;65021;53.174;18.160;2023-07-16T02:25:08;9.40;;;4.40;;
76228;SDS011;65021;53.174;18.160;2023-07-16T02:27:35;7.30;;;4.50;;
76228;SDS011;65021;53.174;18.160;2023-07-16T02:30:01;7.30;;;4.60;;
76228;SDS011;65021;53.174;18.160;2023-07-16T02:32:28;9.00;;;4.90;;
76228;SDS011;65021;53.174;18.160;2023-07-16T02:34:55;8.20;;;4.90;;
76228;SDS011;65021;53.174;18.160;2023-07-16T02:37:21;7.00;;;4.20;;
76228;SDS011;65021;53.174;18.160;2023-07-16T02:39:48;9.90;;;4.40;;
76228;SDS011;65021;53.174;18.160;2023-07-16T02:42:14;7.30;;;4.20;;
76228;SDS011;65021;53.174;18.160;2023-07-16T02:44:41;8.10;;;4.60;;
76228;SDS011;65021;53.174;18.160;2023-07-16T02:47:11;7.20;;;4.70;;
76228;SDS011;65021;53.174;18.160;2023-07-16T02:49:38;6.90;;;4.40;;
76228;SDS011;65021;53.174;18.160;2023-07-16T02:52:05;6.90;;;4.10;;
76228;SDS011;65021;53.174;18.160;2023-07-16T02:54:33;6.50;;;4.30;;
76228;SDS011;65021;53.174;18.160;2023-07-16T02:57:01;8.30;;;4.70;;
76228;SDS011;65021;53.174;18.160;2023-07-16T02:59:27;7.00;;;4.60;;
76228;SDS011;65021;53.174;18.160;2023-07-16T03:01:54;6.80;;;4.00;;
76228;SDS011;65021;53.174;18.160;2023-07-16T03:04:21;10.60;;;4.20;;
76228;SDS011;65021;53.174;18.160;2023-07-16T03:06:47;7.90;;;4.20;;
76228;SDS011;65021;53.174;18.160;2023-07-16T03:09:14;10.80;;;4.70;;
76228;SDS011;65021;53.174;18.160;2023-07-16T03:11:40;7.70;;;4.50;;
76228;SDS011;65021;53.174;18.160;2023-07-16T03:14:07;7.80;;;4.20;;
76228;SDS011;65021;53.174;18.160;2023-07-16T03:16:33;6.00;;;4.20;;
76228;SDS011;65021;53.174;18.160;2023-07-16T03:19:00;6.90;;;4.60;;
76228;SDS011;65021;53.174;18.160;2023-07-16T03:21:26;7.80;;;4.50;;
76228;SDS011;65021;53.174;18.160;2023-07-16T03:23:53;8.50;;;4.70;;
76228;SDS011;65021;53.174;18.160;2023-07-16T03:26:19;7.60;;;4.80;;
76228;SDS011;65021;53.174;18.160;2023-07-16T03:28:46;7.50;;;4.60;;
76228;SDS011;65021;53.174;18.160;2023-07-16T03:31:12;7.70;;;4.80;;
76228;SDS011;65021;53.174;18.160;2023-07-16T03:33:39;7.50;;;4.40;;
76228;SDS011;65021;53.174;18.160;2023-07-16T03:36:05;6.90;;;4.50;;
76228;SDS011;65021;53.174;18.160;2023-07-16T03:38:32;8.40;;;4.00;;
76228;SDS011;65021;53.174;18.160;2023-07-16T03:40:59;6.50;;;4.20;;
76228;SDS011;65021;53.174;18.160;2023-07-16T03:43:26;7.70;;;4.40;;
76228;SDS011;65021;53.174;18.160;2023-07-16T03:45:52;6.40;;;4.10;;
76228;SDS011;65021;53.174;18.160;2023-07-16T03:48:19;15.70;;;4.50;;
76228;SDS011;65021;53.174;18.160;2023-07-16T03:50:46;9.70;;;4.60;;
76228;SDS011;65021;53.174;18.160;2023-07-16T03:53:13;7.40;;;4.40;;
76228;SDS011;65021;53.174;18.160;2023-07-16T03:55:39;6.80;;;4.30;;
76228;SDS011;65021;53.174;18.160;2023-07-16T03:58:06;6.10;;;4.40;;
76228;SDS011;65021;53.174;18.160;2023-07-16T04:00:32;7.30;;;4.20;;
76228;SDS011;65021;53.174;18.160;2023-07-16T04:02:59;8.00;;;4.00;;
76228;SDS011;65021;53.174;18.160;2023-07-16T04:05:26;7.10;;;4.20;;
76228;SDS011;65021;53.174;18.160;2023-07-16T04:07:52;8.50;;;4.20;;
76228;SDS011;65021;53.174;18.160;2023-07-16T04:10:19;5.90;;;4.20;;
76228;SDS011;65021;53.174;18.160;2023-07-16T04:12:45;7.60;;;4.60;;
76228;SDS011;65021;53.174;18.160;2023-07-16T04:15:12;6.90;;;3.80;;
76228;SDS011;65021;53.174;18.160;2023-07-16T04:17:38;8.20;;;4.10;;
76228;SDS011;65021;53.174;18.160;2023-07-16T04:20:05;7.80;;;4.20;;
76228;SDS011;65021;53.174;18.160;2023-07-16T04:22:33;7.40;;;3.80;;
76228;SDS011;65021;53.174;18.160;2023-07-16T04:25:01;7.30;;;4.00;;
76228;SDS011;65021;53.174;18.160;2023-07-16T04:27:28;8.70;;;4.00;;
76228;SDS011;65021;53.174;18.160;2023-07-16T04:29:54;11.70;;;4.70;;
76228;SDS011;65021;53.174;18.160;2023-07-16T04:32:21;8.70;;;4.30;;
76228;SDS011;65021;53.174;18.160;2023-07-16T04:34:48;6.30;;;4.40;;
76228;SDS011;65021;53.174;18.160;2023-07-16T04:37:15;7.50;;;4.10;;
76228;SDS011;65021;53.174;18.160;2023-07-16T04:39:41;6.20;;;4.00;;
76228;SDS011;65021;53.174;18.160;2023-07-16T04:42:08;7.90;;;4.70;;
76228;SDS011;65021;53.174;18.160;2023-07-16T04:44:34;6.80;;;4.40;;
76228;SDS011;65021;53.174;18.160;2023-07-16T04:47:01;6.90;;;4.20;;
76228;SDS011;65021;53.174;18.160;2023-07-16T04:49:27;10.40;;;4.90;;
76228;SDS011;65021;53.174;18.160;2023-07-16T04:51:54;8.40;;;4.10;;
76228;SDS011;65021;53.174;18.160;2023-07-16T04:54:20;7.10;;;4.30;;
76228;SDS011;65021;53.174;18.160;2023-07-16T04:56:47;7.40;;;4.40;;
76228;SDS011;65021;53.174;18.160;2023-07-16T04:59:13;6.30;;;4.00;;
76228;SDS011;65021;53.174;18.160;2023-07-16T05:01:40;7.30;;;4.70;;
76228;SDS011;65021;53.174;18.160;2023-07-16T05:04:06;7.20;;;4.50;;
76228;SDS011;65021;53.174;18.160;2023-07-16T05:06:34;6.70;;;4.20;;
76228;SDS011;65021;53.174;18.160;2023-07-16T05:09:00;6.80;;;4.50;;
76228;SDS011;65021;53.174;18.160;2023-07-16T05:11:27;6.60;;;3.90;;
76228;SDS011;65021;53.174;18.160;2023-07-16T05:13:54;6.90;;;3.80;;
76228;SDS011;65021;53.174;18.160;2023-07-16T05:16:22;5.00;;;3.40;;
76228;SDS011;65021;53.174;18.160;2023-07-16T05:18:48;11.40;;;4.30;;
76228;SDS011;65021;53.174;18.160;2023-07-16T05:21:15;6.50;;;3.80;;
76228;SDS011;65021;53.174;18.160;2023-07-16T05:23:41;6.10;;;3.70;;
76228;SDS011;65021;53.174;18.160;2023-07-16T05:26:08;7.10;;;4.60;;
76228;SDS011;65021;53.174;18.160;2023-07-16T05:28:35;7.50;;;3.60;;
76228;SDS011;65021;53.174;18.160;2023-07-16T05:31:02;5.20;;;3.40;;
76228;SDS011;65021;53.174;18.160;2023-07-16T05:33:29;7.10;;;3.50;;
76228;SDS011;65021;53.174;18.160;2023-07-16T05:35:56;6.80;;;3.10;;
76228;SDS011;65021;53.174;18.160;2023-07-16T05:38:23;5.50;;;3.40;;
76228;SDS011;65021;53.174;18.160;2023-07-16T05:40:49;5.50;;;3.30;;
76228;SDS011;65021;53.174;18.160;2023-07-16T05:43:16;7.50;;;3.80;;
76228;SDS011;65021;53.174;18.160;2023-07-16T05:45:43;6.50;;;3.60;;
76228;SDS011;65021;53.174;18.160;2023-07-16T05:48:09;6.70;;;3.20;;
76228;SDS011;65021;53.174;18.160;2023-07-16T05:50:36;6.80;;;3.40;;
76228;SDS011;65021;53.174;18.160;2023-07-16T05:53:02;4.80;;;3.40;;
76228;SDS011;65021;53.174;18.160;2023-07-16T05:55:29;6.90;;;3.70;;
76228;SDS011;65021;53.174;18.160;2023-07-16T05:57:55;6.10;;;3.30;;
76228;SDS011;65021;53.174;18.160;2023-07-16T06:00:22;6.20;;;3.50;;
76228;SDS011;65021;53.174;18.160;2023-07-16T06:02:48;7.50;;;3.20;;
76228;SDS011;65021;53.174;18.160;2023-07-16T06:05:15;5.80;;;3.30;;
76228;SDS011;65021;53.174;18.160;2023-07-16T06:07:42;8.80;;;3.20;;
76228;SDS011;65021;53.174;18.160;2023-07-16T06:10:08;6.30;;;3.70;;
76228;SDS011;65021;53.174;18.160;2023-07-16T06:12:35;4.10;;;2.20;;
76228;SDS011;65021;53.174;18.160;2023-07-16T06:15:02;4.70;;;2.90;;
76228;SDS011;65021;53.174;18.160;2023-07-16T06:17:28;5.20;;;2.60;;
76228;SDS011;65021;53.174;18.160;2023-07-16T06:19:55;5.90;;;3.40;;
76228;SDS011;65021;53.174;18.160;2023-07-16T06:22:23;6.20;;;3.00;;
76228;SDS011;65021;53.174;18.160;2023-07-16T06:24:50;6.10;;;3.20;;
76228;SDS011;65021;53.174;18.160;2023-07-16T06:27:16;4.90;;;3.10;;
76228;SDS011;65021;53.174;18.160;2023-07-16T06:29:43;5.50;;;3.00;;
76228;SDS011;65021;53.174;18.160;2023-07-16T06:32:09;6.10;;;3.50;;
76228;SDS011;65021;53.174;18.160;2023-07-16T06:34:36;5.60;;;3.20;;
76228;SDS011;65021;53.174;18.160;2023-07-16T06:37:03;5.70;;;3.30;;
76228;SDS011;65021;53.174;18.160;2023-07-16T06:39:30;4.60;;;2.90;;
76228;SDS011;65021;53.174;18.160;2023-07-16T06:41:57;5.90;;;3.30;;
76228;SDS011;65021;53.174;18.160;2023-07-16T06:44:24;6.20;;;3.50;;
76228;SDS011;65021;53.174;18.160;2023-07-16T06:46:53;5.90;;;2.60;;
76228;SDS011;65021;53.174;18.160;2023-07-16T06:49:21;5.70;;;3.10;;
76228;SDS011;65021;53.174;18.160;2023-07-16T06:51:47;6.00;;;3.10;;
76228;SDS011;65021;53.174;18.160;2023-07-16T06:54:14;6.70;;;3.10;;
76228;SDS011;65021;53.174;18.160;2023-07-16T06:56:41;5.30;;;2.90;;
76228;SDS011;65021;53.174;18.160;2023-07-16T06:59:07;5.00;;;2.80;;
76228;SDS011;65021;53.174;18.160;2023-07-16T07:01:34;5.70;;;1.80;;
76228;SDS011;65021;53.174;18.160;2023-07-16T07:04:00;8.00;;;3.50;;
76228;SDS011;65021;53.174;18.160;2023-07-16T07:06:27;4.50;;;2.30;;
76228;SDS011;65021;53.174;18.160;2023-07-16T07:08:53;4.60;;;2.70;;
76228;SDS011;65021;53.174;18.160;2023-07-16T07:11:20;3.90;;;2.30;;
76228;SDS011;65021;53.174;18.160;2023-07-16T07:13:46;6.10;;;2.50;;
76228;SDS011;65021;53.174;18.160;2023-07-16T07:16:13;5.30;;;2.50;;
76228;SDS011;65021;53.174;18.160;2023-07-16T07:18:39;4.00;;;1.90;;
76228;SDS011;65021;53.174;18.160;2023-07-16T07:21:06;5.90;;;2.60;;
76228;SDS011;65021;53.174;18.160;2023-07-16T07:23:32;4.10;;;2.20;;
76228;SDS011;65021;53.174;18.160;2023-07-16T07:25:59;4.40;;;2.20;;
76228;SDS011;65021;53.174;18.160;2023-07-16T07:28:26;3.90;;;2.10;;
76228;SDS011;65021;53.174;18.160;2023-07-16T07:30:53;5.00;;;2.10;;
76228;SDS011;65021;53.174;18.160;2023-07-16T07:33:20;5.70;;;2.40;;
76228;SDS011;65021;53.174;18.160;2023-07-16T07:35:47;4.00;;;1.90;;
76228;SDS011;65021;53.174;18.160;2023-07-16T07:38:13;3.70;;;2.10;;
76228;SDS011;65021;53.174;18.160;2023-07-16T07:40:42;5.10;;;2.10;;
76228;SDS011;65021;53.174;18.160;2023-07-16T07:43:10;6.00;;;2.40;;
76228;SDS011;65021;53.174;18.160;2023-07-16T07:45:36;5.20;;;2.10;;
76228;SDS011;65021;53.174;18.160;2023-07-16T07:48:03;3.90;;;1.80;;
76228;SDS011;65021;53.174;18.160;2023-07-16T07:50:30;4.50;;;2.10;;
76228;SDS011;65021;53.174;18.160;2023-07-16T07:52:56;6.10;;;2.30;;
76228;SDS011;65021;53.174;18.160;2023-07-16T07:55:23;3.60;;;1.40;;
76228;SDS011;65021;53.174;18.160;2023-07-16T07:57:49;3.50;;;2.10;;
76228;SDS011;65021;53.174;18.160;2023-07-16T08:00:16;3.80;;;1.60;;
76228;SDS011;65021;53.174;18.160;2023-07-16T08:02:43;3.90;;;1.70;;
76228;SDS011;65021;53.174;18.160;2023-07-16T08:05:12;3.90;;;2.00;;
76228;SDS011;65021;53.174;18.160;2023-07-16T08:07:38;3.70;;;1.90;;
76228;SDS011;65021;53.174;18.160;2023-07-16T08:10:05;4.40;;;1.90;;
76228;SDS011;65021;53.174;18.160;2023-07-16T08:12:32;4.00;;;2.00;;
76228;SDS011;65021;53.174;18.160;2023-07-16T08:14:58;4.70;;;2.00;;
76228;SDS011;65021;53.174;18.160;2023-07-16T08:17:25;3.40;;;1.80;;
76228;SDS011;65021;53.174;18.160;2023-07-16T08:19:52;4.20;;;1.80;;
76228;SDS011;65021;53.174;18.160;2023-07-16T08:22:18;3.70;;;1.60;;
76228;SDS011;65021;53.174;18.160;2023-07-16T08:24:45;3.20;;;1.70;;
76228;SDS011;65021;53.174;18.160;2023-07-16T08:27:11;4.20;;;1.60;;
76228;SDS011;65021;53.174;18.160;2023-07-16T08:29:38;3.30;;;1.50;;
76228;SDS011;65021;53.174;18.160;2023-07-16T08:32:04;3.90;;;1.80;;
76228;SDS011;65021;53.174;18.160;2023-07-16T08:34:31;3.00;;;1.50;;
76228;SDS011;65021;53.174;18.160;2023-07-16T08:36:58;2.90;;;1.40;;
76228;SDS011;65021;53.174;18.160;2023-07-16T08:39:24;4.10;;;1.50;;
76228;SDS011;65021;53.174;18.160;2023-07-16T08:41:51;3.70;;;1.70;;
76228;SDS011;65021;53.174;18.160;2023-07-16T08:44:17;3.40;;;1.60;;
76228;SDS011;65021;53.174;18.160;2023-07-16T08:46:44;3.60;;;1.40;;
76228;SDS011;65021;53.174;18.160;2023-07-16T08:49:11;2.80;;;1.10;;
76228;SDS011;65021;53.174;18.160;2023-07-16T08:51:38;2.80;;;1.20;;
76228;SDS011;65021;53.174;18.160;2023-07-16T08:54:05;2.90;;;1.30;;
76228;SDS011;65021;53.174;18.160;2023-07-16T08:56:31;5.20;;;1.70;;
76228;SDS011;65021;53.174;18.160;2023-07-16T08:58:58;2.90;;;1.10;;
76228;SDS011;65021;53.174;18.160;2023-07-16T09:01:25;2.90;;;1.40;;
76228;SDS011;65021;53.174;18.160;2023-07-16T09:03:53;3.00;;;1.50;;
76228;SDS011;65021;53.174;18.160;2023-07-16T09:06:20;5.90;;;1.50;;
76228;SDS011;65021;53.174;18.160;2023-07-16T09:08:46;3.20;;;1.40;;
76228;SDS011;65021;53.174;18.160;2023-07-16T09:11:13;3.50;;;1.50;;
76228;SDS011;65021;53.174;18.160;2023-07-16T09:13:43;3.40;;;1.40;;
76228;SDS011;65021;53.174;18.160;2023-07-16T09:16:10;3.00;;;1.20;;
76228;SDS011;65021;53.174;18.160;2023-07-16T09:18:39;2.60;;;1.00;;
76228;SDS011;65021;53.174;18.160;2023-07-16T09:21:07;3.60;;;1.50;;
76228;SDS011;65021;53.174;18.160;2023-07-16T09:23:34;3.40;;;1.10;;
76228;SDS011;65021;53.174;18.160;2023-07-16T09:26:01;3.30;;;1.30;;
76228;SDS011;65021;53.174;18.160;2023-07-16T09:28:32;4.00;;;1.00;;
76228;SDS011;65021;53.174;18.160;2023-07-16T09:31:04;4.10;;;1.10;;
76228;SDS011;65021;53.174;18.160;2023-07-16T09:33:32;2.80;;;1.20;;
76228;SDS011;65021;53.174;18.160;2023-07-16T09:36:00;2.50;;;1.10;;
76228;SDS011;65021;53.174;18.160;2023-07-16T09:38:28;3.40;;;1.20;;
76228;SDS011;65021;53.174;18.160;2023-07-16T09:40:56;4.10;;;1.30;;
76228;SDS011;65021;53.174;18.160;2023-07-16T09:43:23;2.60;;;1.10;;
76228;SDS011;65021;53.174;18.160;2023-07-16T09:45:50;6.40;;;1.40;;
76228;SDS011;65021;53.174;18.160;2023-07-16T09:48:16;4.00;;;1.30;;
76228;SDS011;65021;53.174;18.160;2023-07-16T09:50:46;2.70;;;1.10;;
76228;SDS011;65021;53.174;18.160;2023-07-16T09:53:20;3.90;;;1.50;;
76228;SDS011;65021;53.174;18.160;2023-07-16T09:55:48;2.90;;;1.20;;
76228;SDS011;65021;53.174;18.160;2023-07-16T09:58:15;3.40;;;0.80;;
76228;SDS011;65021;53.174;18.160;2023-07-16T10:00:46;2.60;;;1.10;;
76228;SDS011;65021;53.174;18.160;2023-07-16T10:03:14;3.90;;;1.30;;
76228;SDS011;65021;53.174;18.160;2023-07-16T10:05:41;3.50;;;1.50;;
76228;SDS011;65021;53.174;18.160;2023-07-16T10:08:15;3.80;;;1.40;;
76228;SDS011;65021;53.174;18.160;2023-07-16T10:13:14;3.30;;;1.30;;
76228;SDS011;65021;53.174;18.160;2023-07-16T10:15:54;2.90;;;1.30;;
76228;SDS011;65021;53.174;18.160;2023-07-16T10:18:32;3.50;;;1.20;;
76228;SDS011;65021;53.174;18.160;2023-07-16T10:21:09;4.40;;;1.30;;
76228;SDS011;65021;53.174;18.160;2023-07-16T10:23:42;3.30;;;1.10;;
76228;SDS011;65021;53.174;18.160;2023-07-16T10:26:11;3.30;;;1.30;;
76228;SDS011;65021;53.174;18.160;2023-07-16T10:31:05;3.50;;;1.30;;
76228;SDS011;65021;53.174;18.160;2023-07-16T10:33:42;3.00;;;1.10;;
76228;SDS011;65021;53.174;18.160;2023-07-16T10:36:09;2.70;;;1.20;;
76228;SDS011;65021;53.174;18.160;2023-07-16T10:38:41;2.90;;;1.30;;
76228;SDS011;65021;53.174;18.160;2023-07-16T10:41:08;3.20;;;1.40;;
76228;SDS011;65021;53.174;18.160;2023-07-16T10:43:35;5.20;;;1.40;;
76228;SDS011;65021;53.174;18.160;2023-07-16T10:46:04;4.30;;;1.30;;
76228;SDS011;65021;53.174;18.160;2023-07-16T10:48:32;3.60;;;1.80;;
76228;SDS011;65021;53.174;18.160;2023-07-16T10:50:58;3.80;;;1.70;;
76228;SDS011;65021;53.174;18.160;2023-07-16T10:53:25;4.70;;;1.70;;
76228;SDS011;65021;53.174;18.160;2023-07-16T10:55:51;5.60;;;1.70;;
76228;SDS011;65021;53.174;18.160;2023-07-16T10:58:18;4.30;;;2.00;;
76228;SDS011;65021;53.174;18.160;2023-07-16T11:00:45;3.00;;;1.50;;
76228;SDS011;65021;53.174;18.160;2023-07-16T11:03:14;4.80;;;1.70;;
76228;SDS011;65021;53.174;18.160;2023-07-16T11:05:45;5.20;;;1.80;;
76228;SDS011;65021;53.174;18.160;2023-07-16T11:08:21;4.20;;;1.90;;
76228;SDS011;65021;53.174;18.160;2023-07-16T11:10:55;3.50;;;1.90;;
76228;SDS011;65021;53.174;18.160;2023-07-16T11:13:25;3.90;;;2.00;;
76228;SDS011;65021;53.174;18.160;2023-07-16T11:15:57;3.80;;;1.90;;
76228;SDS011;65021;53.174;18.160;2023-07-16T11:18:32;6.50;;;2.10;;
76228;SDS011;65021;53.174;18.160;2023-07-16T11:20:59;4.10;;;2.00;;
76228;SDS011;65021;53.174;18.160;2023-07-16T11:23:25;3.50;;;1.70;;
76228;SDS011;65021;53.174;18.160;2023-07-16T11:25:53;4.50;;;2.00;;
76228;SDS011;65021;53.174;18.160;2023-07-16T11:28:19;3.60;;;2.00;;
76228;SDS011;65021;53.174;18.160;2023-07-16T11:30:46;3.60;;;1.70;;
76228;SDS011;65021;53.174;18.160;2023-07-16T11:33:12;4.00;;;2.00;;
76228;SDS011;65021;53.174;18.160;2023-07-16T11:35:39;3.40;;;2.10;;
76228;SDS011;65021;53.174;18.160;2023-07-16T11:38:07;3.80;;;2.10;;
76228;SDS011;65021;53.174;18.160;2023-07-16T11:40:34;3.30;;;1.60;;
76228;SDS011;65021;53.174;18.160;2023-07-16T11:43:11;4.20;;;1.90;;
76228;SDS011;65021;53.174;18.160;2023-07-16T11:45:38;3.30;;;1.60;;
76228;SDS011;65021;53.174;18.160;2023-07-16T11:48:05;3.90;;;2.00;;
76228;SDS011;65021;53.174;18.160;2023-07-16T11:50:32;3.90;;;1.90;;
76228;SDS011;65021;53.174;18.160;2023-07-16T11:53:00;3.80;;;1.80;;
76228;SDS011;65021;53.174;18.160;2023-07-16T11:55:27;4.50;;;1.70;;
76228;SDS011;65021;53.174;18.160;2023-07-16T11:57:54;4.80;;;1.80;;
76228;SDS011;65021;53.174;18.160;2023-07-16T12:02:49;4.50;;;1.90;;
76228;SDS011;65021;53.174;18.160;2023-07-16T12:05:19;4.60;;;1.80;;
76228;SDS011;65021;53.174;18.160;2023-07-16T12:07:46;4.10;;;2.00;;
76228;SDS011;65021;53.174;18.160;2023-07-16T12:10:13;4.00;;;1.90;;
76228;SDS011;65021;53.174;18.160;2023-07-16T12:12:40;3.80;;;1.90;;
76228;SDS011;65021;53.174;18.160;2023-07-16T12:15:07;4.40;;;2.10;;
76228;SDS011;65021;53.174;18.160;2023-07-16T12:17:34;3.30;;;1.40;;
76228;SDS011;65021;53.174;18.160;2023-07-16T12:20:04;2.90;;;1.50;;
76228;SDS011;65021;53.174;18.160;2023-07-16T12:22:31;3.90;;;1.80;;
76228;SDS011;65021;53.174;18.160;2023-07-16T12:24:58;4.50;;;1.80;;
76228;SDS011;65021;53.174;18.160;2023-07-16T12:27:24;3.20;;;1.50;;
76228;SDS011;65021;53.174;18.160;2023-07-16T12:29:51;3.20;;;1.40;;
76228;SDS011;65021;53.174;18.160;2023-07-16T12:32:18;3.20;;;1.50;;
76228;SDS011;65021;53.174;18.160;2023-07-16T12:34:46;4.10;;;1.80;;
76228;SDS011;65021;53.174;18.160;2023-07-16T12:37:13;3.90;;;1.70;;
76228;SDS011;65021;53.174;18.160;2023-07-16T12:39:39;5.10;;;1.60;;
76228;SDS011;65021;53.174;18.160;2023-07-16T12:42:06;4.00;;;1.80;;
76228;SDS011;65021;53.174;18.160;2023-07-16T12:44:33;3.30;;;1.40;;
76228;SDS011;65021;53.174;18.160;2023-07-16T12:46:59;3.00;;;1.50;;
76228;SDS011;65021;53.174;18.160;2023-07-16T12:49:25;3.20;;;1.20;;
76228;SDS011;65021;53.174;18.160;2023-07-16T12:51:52;3.20;;;1.40;;
76228;SDS011;65021;53.174;18.160;2023-07-16T12:54:19;4.00;;;1.60;;
76228;SDS011;65021;53.174;18.160;2023-07-16T12:56:45;3.00;;;1.40;;
76228;SDS011;65021;53.174;18.160;2023-07-16T12:59:12;4.30;;;1.60;;
76228;SDS011;65021;53.174;18.160;2023-07-16T13:01:38;3.10;;;1.50;;
76228;SDS011;65021;53.174;18.160;2023-07-16T13:04:05;4.30;;;1.80;;
76228;SDS011;65021;53.174;18.160;2023-07-16T13:06:31;2.80;;;1.20;;
76228;SDS011;65021;53.174;18.160;2023-07-16T13:08:58;3.40;;;1.70;;
76228;SDS011;65021;53.174;18.160;2023-07-16T13:11:25;3.10;;;1.30;;
76228;SDS011;65021;53.174;18.160;2023-07-16T13:13:52;2.80;;;1.30;;
76228;SDS011;65021;53.174;18.160;2023-07-16T13:16:19;2.80;;;1.40;;
76228;SDS011;65021;53.174;18.160;2023-07-16T13:18:45;3.20;;;1.60;;
76228;SDS011;65021;53.174;18.160;2023-07-16T13:21:12;4.40;;;1.80;;
76228;SDS011;65021;53.174;18.160;2023-07-16T13:23:38;3.40;;;1.60;;
76228;SDS011;65021;53.174;18.160;2023-07-16T13:26:05;3.50;;;1.60;;
76228;SDS011;65021;53.174;18.160;2023-07-16T13:28:31;3.60;;;1.80;;
76228;SDS011;65021;53.174;18.160;2023-07-16T13:30:58;5.30;;;1.60;;
76228;SDS011;65021;53.174;18.160;2023-07-16T13:33:24;3.40;;;1.30;;
76228;SDS011;65021;53.174;18.160;2023-07-16T13:35:52;4.20;;;2.00;;
76228;SDS011;65021;53.174;18.160;2023-07-16T13:38:18;2.90;;;1.50;;
76228;SDS011;65021;53.174;18.160;2023-07-16T13:40:45;3.10;;;1.70;;
76228;SDS011;65021;53.174;18.160;2023-07-16T13:43:11;2.90;;;1.50;;
76228;SDS011;65021;53.174;18.160;2023-07-16T13:45:38;3.40;;;1.80;;
76228;SDS011;65021;53.174;18.160;2023-07-16T13:48:05;4.90;;;1.80;;
76228;SDS011;65021;53.174;18.160;2023-07-16T13:50:32;3.30;;;1.70;;
76228;SDS011;65021;53.174;18.160;2023-07-16T13:52:58;3.30;;;1.50;;
76228;SDS011;65021;53.174;18.160;2023-07-16T13:55:27;3.00;;;1.50;;
76228;SDS011;65021;53.174;18.160;2023-07-16T13:57:54;3.40;;;1.30;;
76228;SDS011;65021;53.174;18.160;2023-07-16T14:00:23;3.00;;;1.50;;
76228;SDS011;65021;53.174;18.160;2023-07-16T14:02:50;5.30;;;1.70;;
76228;SDS011;65021;53.174;18.160;2023-07-16T14:05:17;3.20;;;1.50;;
76228;SDS011;65021;53.174;18.160;2023-07-16T14:07:45;3.50;;;1.40;;
76228;SDS011;65021;53.174;18.160;2023-07-16T14:10:13;2.70;;;1.40;;
76228;SDS011;65021;53.174;18.160;2023-07-16T14:12:39;4.80;;;1.80;;
76228;SDS011;65021;53.174;18.160;2023-07-16T14:15:06;3.00;;;1.50;;
76228;SDS011;65021;53.174;18.160;2023-07-16T14:17:33;3.80;;;1.50;;
76228;SDS011;65021;53.174;18.160;2023-07-16T14:20:00;3.50;;;1.50;;
76228;SDS011;65021;53.174;18.160;2023-07-16T14:22:26;3.00;;;1.40;;
76228;SDS011;65021;53.174;18.160;2023-07-16T14:24:53;3.00;;;1.60;;
76228;SDS011;65021;53.174;18.160;2023-07-16T14:27:20;3.00;;;1.60;;
76228;SDS011;65021;53.174;18.160;2023-07-16T14:29:46;2.90;;;1.40;;
76228;SDS011;65021;53.174;18.160;2023-07-16T14:32:13;3.40;;;1.60;;
76228;SDS011;65021;53.174;18.160;2023-07-16T14:34:40;3.80;;;1.60;;
76228;SDS011;65021;53.174;18.160;2023-07-16T14:37:06;3.00;;;1.50;;
76228;SDS011;65021;53.174;18.160;2023-07-16T14:39:33;3.00;;;1.50;;
76228;SDS011;65021;53.174;18.160;2023-07-16T14:41:59;3.50;;;1.40;;
76228;SDS011;65021;53.174;18.160;2023-07-16T14:44:29;3.20;;;1.50;;
76228;SDS011;65021;53.174;18.160;2023-07-16T14:46:56;3.40;;;1.40;;
76228;SDS011;65021;53.174;18.160;2023-07-16T14:49:23;4.80;;;1.50;;